Time;durP1;ratioP1;P1;durP2;ratioP2;P2;SDS_P1;SDS_P2;PMS_P1;PMS_P2;Temp;Humidity;BMP_temperature;BMP_pressure;BME280_temperature;BME280_humidity;BME280_pressure;Samples;Min_cycle;Max_cycle;Signal;HPM_P1;HPM_P2
2021/09/24 00:01:50;;;;;;;3.33;1.30;;;;;;;22.35;50.95;101691.16;5034406;28;20267;-62
2021/09/24 00:04:15;;;;;;;2.53;1.27;;;;;;;22.33;51.29;101689.59;5033103;28;20104;-61
2021/09/24 00:06:44;;;;;;;3.05;1.33;;;;;;;22.33;51.04;101686.94;5034063;28;20025;-61
2021/09/24 00:09:11;;;;;;;4.25;1.60;;;;;;;22.33;50.86;101686.94;5034262;28;20069;-61
2021/09/24 00:11:38;;;;;;;3.22;1.73;;;;;;;22.31;51.22;101687.06;5033912;28;20074;-62
2021/09/24 00:14:05;;;;;;;4.40;1.50;;;;;;;22.31;51.14;101684.41;5034030;28;20571;-60
2021/09/24 00:16:31;;;;;;;3.03;1.27;;;;;;;22.29;50.96;101689.00;5034381;28;20159;-61
2021/09/24 00:18:56;;;;;;;3.45;1.30;;;;;;;22.27;51.11;101682.97;5033312;28;20120;-61
2021/09/24 00:21:22;;;;;;;3.80;1.52;;;;;;;22.27;51.10;101682.97;5034506;28;20534;-61
2021/09/24 00:23:48;;;;;;;3.25;1.20;;;;;;;22.26;50.98;101689.25;5033846;28;20441;-62
2021/09/24 00:26:28;;;;;;;5.47;1.40;;;;;;;22.27;51.23;101685.63;5033476;28;20025;-62
2021/09/24 00:28:53;;;;;;;2.45;1.23;;;;;;;22.25;51.22;101685.75;5033808;28;20153;-62
2021/09/24 00:31:24;;;;;;;2.43;1.30;;;;;;;22.25;51.09;101680.44;5033957;28;20116;-61
2021/09/24 00:33:50;;;;;;;2.88;1.40;;;;;;;22.25;51.33;101671.63;5032912;28;20675;-62
2021/09/24 00:36:15;;;;;;;3.08;1.30;;;;;;;22.23;51.24;101670.94;5034305;28;20116;-61
2021/09/24 00:38:40;;;;;;;2.88;1.30;;;;;;;22.23;51.18;101673.59;5034065;28;20033;-61
2021/09/24 00:41:08;;;;;;;2.05;1.10;;;;;;;22.23;51.06;101671.75;5032746;28;20018;-62
2021/09/24 00:43:33;;;;;;;4.03;1.40;;;;;;;22.22;51.21;101655.97;5033835;28;20022;-62
2021/09/24 00:46:00;;;;;;;3.28;1.30;;;;;;;22.21;51.27;101656.97;5033468;28;20025;-61
2021/09/24 00:48:25;;;;;;;2.75;1.10;;;;;;;22.20;51.49;101653.44;5032774;28;20029;-62
2021/09/24 00:50:51;;;;;;;2.88;1.20;;;;;;;22.20;51.45;101655.28;5033287;28;20029;-62
2021/09/24 00:53:16;;;;;;;5.68;1.50;;;;;;;22.18;51.52;101650.09;5033200;28;20116;-62
2021/09/24 00:55:42;;;;;;;3.13;1.30;;;;;;;22.19;51.43;101653.56;5032787;28;20036;-62
2021/09/24 00:58:07;;;;;;;3.03;1.23;;;;;;;22.20;51.20;101652.63;5033383;28;20022;-61
2021/09/24 01:00:33;;;;;;;4.10;1.50;;;;;;;22.18;51.33;101650.09;5032703;28;20029;-62
2021/09/24 01:02:58;;;;;;;3.58;1.23;;;;;;;22.18;51.52;101647.44;5032955;28;20081;-61
2021/09/24 01:05:24;;;;;;;2.58;1.20;;;;;;;22.17;51.50;101640.44;5033574;28;20028;-61
2021/09/24 01:07:49;;;;;;;2.88;1.17;;;;;;;22.17;51.41;101647.56;5032411;28;20049;-62
2021/09/24 01:10:16;;;;;;;4.32;1.27;;;;;;;22.15;51.36;101639.72;5033223;28;20029;-61
2021/09/24 01:12:42;;;;;;;3.90;1.35;;;;;;;22.16;51.46;101646.75;5033572;28;20021;-61
2021/09/24 01:15:11;;;;;;;4.22;1.35;;;;;;;22.15;51.38;101637.06;5032078;28;20078;-62
2021/09/24 01:17:37;;;;;;;4.10;1.42;;;;;;;22.15;51.56;101634.44;5032997;28;20029;-61
2021/09/24 01:20:05;;;;;;;3.15;1.45;;;;;;;22.14;51.53;101637.22;5032990;28;20041;-61
2021/09/24 01:22:30;;;;;;;3.40;1.40;;;;;;;22.14;51.68;101634.56;5032345;28;20053;-61
2021/09/24 01:24:56;;;;;;;4.28;1.42;;;;;;;22.12;51.44;101626.72;5032890;28;20060;-62
2021/09/24 01:27:21;;;;;;;4.05;1.50;;;;;;;22.11;51.48;101633.00;5033153;28;20025;-61
2021/09/24 01:29:51;;;;;;;3.88;1.50;;;;;;;22.10;51.71;101632.16;5032228;28;20033;-61
2021/09/24 01:32:17;;;;;;;3.55;1.50;;;;;;;22.10;51.75;101629.50;5033109;28;20049;-60
2021/09/24 01:34:42;;;;;;;3.60;1.48;;;;;;;22.09;51.63;101624.31;5032816;28;20072;-62
2021/09/24 01:37:08;;;;;;;2.58;1.30;;;;;;;22.10;51.46;101623.38;5031943;28;20025;-61
2021/09/24 01:39:33;;;;;;;2.85;1.42;;;;;;;22.08;51.76;101628.81;5032933;28;20388;-61
2021/09/24 01:41:58;;;;;;;4.50;1.70;;;;;;;22.09;51.76;101627.81;5032526;28;20025;-61
2021/09/24 01:44:23;;;;;;;3.80;1.60;;;;;;;22.10;51.68;101623.38;5031947;28;20345;-62
2021/09/24 01:46:49;;;;;;;4.03;1.70;;;;;;;22.10;51.51;101615.41;5032255;28;20396;-61
2021/09/24 01:49:14;;;;;;;3.58;1.40;;;;;;;22.10;51.46;101620.72;5032856;28;20079;-61
2021/09/24 01:51:42;;;;;;;3.15;1.42;;;;;;;22.09;51.61;101613.72;5032195;28;20037;-61
2021/09/24 01:54:13;;;;;;;4.00;1.52;;;;;;;22.09;51.72;101611.06;5031959;28;20037;-61
2021/09/24 01:56:38;;;;;;;4.20;1.50;;;;;;;22.07;51.79;101605.06;5032767;28;20083;-64
2021/09/24 01:59:04;;;;;;;3.30;1.55;;;;;;;22.06;51.72;101606.88;5031852;28;20033;-61
2021/09/24 02:01:33;;;;;;;4.68;1.70;;;;;;;22.05;51.71;101605.19;5032606;28;20045;-62
2021/09/24 02:03:58;;;;;;;4.65;1.95;;;;;;;22.04;51.78;101607.97;5031390;28;20054;-62
2021/09/24 02:06:23;;;;;;;4.72;1.83;;;;;;;22.05;51.59;101614.97;5032666;28;20017;-62
2021/09/24 02:08:52;;;;;;;4.20;1.80;;;;;;;22.06;51.71;101619.28;5032078;28;20412;-61
2021/09/24 02:11:17;;;;;;;4.80;2.17;;;;;;;22.06;51.58;101614.84;5031706;28;20112;-62
2021/09/24 02:13:43;;;;;;;4.63;2.10;;;;;;;22.04;51.84;101611.44;5032378;28;20549;-61
2021/09/24 02:16:10;;;;;;;4.80;2.15;;;;;;;22.03;51.73;101609.78;5031862;28;20129;-62
2021/09/24 02:18:37;;;;;;;4.22;2.00;;;;;;;22.03;51.64;101608.94;5031560;28;20026;-61
2021/09/24 02:21:03;;;;;;;4.65;2.10;;;;;;;22.03;51.50;101609.78;5032019;28;20021;-62
2021/09/24 02:23:28;;;;;;;4.20;2.20;;;;;;;22.03;51.82;101606.28;5032238;28;20448;-61
2021/09/24 02:25:54;;;;;;;5.20;2.38;;;;;;;22.03;51.95;101607.13;5031179;28;20052;-61
2021/09/24 02:28:19;;;;;;;5.05;2.20;;;;;;;22.02;51.74;101608.09;5031719;28;20033;-62
2021/09/24 02:30:45;;;;;;;5.05;2.55;;;;;;;22.00;51.98;101607.41;5032176;28;20489;-62
2021/09/24 02:33:10;;;;;;;5.05;2.35;;;;;;;22.00;51.99;101607.41;5031095;28;20071;-62
2021/09/24 02:35:36;;;;;;;6.20;2.70;;;;;;;22.00;51.88;101604.75;5032074;28;20105;-62
2021/09/24 02:38:01;;;;;;;4.55;2.70;;;;;;;21.99;52.07;101595.09;5031710;28;20021;-61
2021/09/24 02:40:26;;;;;;;4.30;2.40;;;;;;;22.00;52.02;101594.13;5031195;28;20017;-60
2021/09/24 02:42:52;;;;;;;4.93;2.92;;;;;;;21.99;51.91;101592.44;5031678;28;20049;-60
2021/09/24 02:45:17;;;;;;;5.30;2.88;;;;;;;21.98;51.88;101593.41;5031960;28;20116;-61
2021/09/24 02:47:42;;;;;;;4.73;2.73;;;;;;;21.98;51.81;101598.72;5031488;28;20099;-61
2021/09/24 02:50:08;;;;;;;7.15;2.63;;;;;;;21.98;51.97;101598.72;5031645;28;20278;-61
2021/09/24 02:52:34;;;;;;;5.55;2.78;;;;;;;21.96;51.93;101600.66;5031919;28;20017;-62
2021/09/24 02:54:59;;;;;;;5.80;3.15;;;;;;;22.00;52.01;101601.22;5030974;28;20048;-60
2021/09/24 02:57:24;;;;;;;7.68;2.92;;;;;;;21.96;52.00;101590.03;5031866;28;20018;-62
2021/09/24 02:59:50;;;;;;;5.60;3.33;;;;;;;21.96;51.94;101587.38;5031310;28;20032;-61
2021/09/24 03:02:15;;;;;;;6.03;3.27;;;;;;;21.97;51.96;101591.75;5030946;28;20057;-61
2021/09/24 03:04:40;;;;;;;6.05;2.88;;;;;;;21.96;51.87;101590.03;5032032;28;20285;-61
2021/09/24 03:07:06;;;;;;;5.20;3.17;;;;;;;21.97;52.10;101589.09;5030893;28;20416;-61
2021/09/24 03:09:31;;;;;;;6.38;3.30;;;;;;;21.96;51.80;101584.75;5031806;28;20053;-61
2021/09/24 03:11:56;;;;;;;7.67;3.60;;;;;;;21.95;52.11;101583.03;5031657;28;20102;-61
2021/09/24 03:14:22;;;;;;;7.35;3.33;;;;;;;21.96;51.97;101595.34;5030839;28;20329;-61
2021/09/24 03:16:50;;;;;;;6.70;3.13;;;;;;;21.96;52.03;101594.53;5031771;28;20184;-61
2021/09/24 03:19:19;;;;;;;6.35;3.65;;;;;;;21.95;51.86;101584.88;5031960;28;20655;-60
2021/09/24 03:21:47;;;;;;;6.75;3.55;;;;;;;21.94;51.98;101584.03;5031006;28;20124;-60
2021/09/24 03:24:13;;;;;;;6.05;3.83;;;;;;;21.93;52.13;101585.81;5031665;28;20017;-61
2021/09/24 03:26:38;;;;;;;6.28;3.65;;;;;;;21.94;51.84;101584.03;5031547;28;20075;-61
2021/09/24 03:29:04;;;;;;;5.95;3.17;;;;;;;21.93;51.99;101591.13;5030532;28;20037;-61
2021/09/24 03:31:29;;;;;;;8.25;3.22;;;;;;;21.94;51.92;101578.72;5031843;28;20033;-61
2021/09/24 03:33:54;;;;;;;6.45;3.40;;;;;;;21.93;52.06;101575.22;5031409;28;20023;-61
2021/09/24 03:36:23;;;;;;;7.35;3.97;;;;;;;21.93;51.97;101585.00;5030827;28;20523;-61
2021/09/24 03:38:48;;;;;;;6.00;3.65;;;;;;;21.93;52.12;101587.66;5031182;28;20032;-61
2021/09/24 03:41:14;;;;;;;7.10;4.03;;;;;;;21.92;52.13;101585.97;5034080;28;20112;-61
2021/09/24 03:43:39;;;;;;;6.28;3.80;;;;;;;21.92;52.04;101592.13;5034276;28;20278;-61
2021/09/24 03:46:04;;;;;;;7.27;3.97;;;;;;;21.92;52.24;101592.13;5034960;28;20029;-61
2021/09/24 03:48:30;;;;;;;7.32;3.75;;;;;;;21.93;51.99;101598.25;5034999;28;20811;-61
2021/09/24 03:50:55;;;;;;;8.30;4.30;;;;;;;21.91;51.93;101593.09;5033840;28;20033;-62
2021/09/24 03:53:20;;;;;;;9.43;4.60;;;;;;;21.91;52.21;101601.06;5034868;28;20024;-61
2021/09/24 03:55:47;;;;;;;7.55;4.47;;;;;;;21.91;52.10;101594.91;5034676;28;20048;-61
2021/09/24 03:58:12;;;;;;;7.70;4.32;;;;;;;21.90;52.08;101596.75;5033998;28;20029;-62
2021/09/24 04:00:37;;;;;;;7.75;4.95;;;;;;;21.89;52.31;101592.38;5034752;28;20384;-61
2021/09/24 04:03:03;;;;;;;8.63;4.43;;;;;;;21.91;52.32;101597.56;5034075;28;20042;-61
2021/09/24 04:05:28;;;;;;;7.17;4.47;;;;;;;21.90;52.00;101588.78;5033961;28;20026;-61
2021/09/24 04:07:56;;;;;;;7.55;4.70;;;;;;;21.91;52.11;101592.25;5034158;28;20678;-61
2021/09/24 04:10:21;;;;;;;7.63;4.95;;;;;;;21.91;52.22;101592.25;5033609;28;20377;-61
2021/09/24 04:12:47;;;;;;;9.73;4.72;;;;;;;21.91;52.12;101590.44;5034360;28;20030;-61
2021/09/24 04:15:12;;;;;;;8.02;4.60;;;;;;;21.92;51.96;101585.97;5034262;28;20040;-61
2021/09/24 04:17:37;;;;;;;7.85;4.93;;;;;;;21.91;52.18;101584.31;5033800;28;20025;-63
2021/09/24 04:20:04;;;;;;;8.90;4.80;;;;;;;21.91;52.13;101593.09;5035160;28;20022;-62
2021/09/24 04:22:32;;;;;;;8.93;5.00;;;;;;;21.91;52.20;101590.44;5037136;28;20453;-62
2021/09/24 04:24:57;;;;;;;6.95;4.47;;;;;;;21.91;52.08;101592.25;5033434;28;20499;-62
2021/09/24 04:27:23;;;;;;;9.45;5.35;;;;;;;21.89;51.96;101591.56;5034663;28;20037;-62
2021/09/24 04:29:48;;;;;;;9.93;5.57;;;;;;;21.89;52.27;101594.22;5034225;28;20070;-61
2021/09/24 04:32:13;;;;;;;8.55;5.15;;;;;;;21.89;52.18;101596.88;5035284;28;20028;-62
2021/09/24 04:34:38;;;;;;;9.35;5.68;;;;;;;21.88;52.22;101596.00;5035035;28;20025;-61
2021/09/24 04:37:04;;;;;;;9.77;5.23;;;;;;;21.88;52.15;101597.81;5034192;28;20029;-61
2021/09/24 04:39:29;;;;;;;11.40;5.53;;;;;;;21.88;52.22;101598.66;5033830;28;20274;-62
2021/09/24 04:41:55;;;;;;;10.68;5.70;;;;;;;21.88;52.19;101590.69;5033983;28;20428;-62
2021/09/24 04:44:23;;;;;;;9.13;5.28;;;;;;;21.88;52.13;101597.81;5034136;28;20030;-62
2021/09/24 04:46:48;;;;;;;9.05;5.38;;;;;;;21.88;52.22;101596.00;5032978;28;20044;-62
2021/09/24 04:49:14;;;;;;;9.77;5.93;;;;;;;21.87;52.31;101594.34;5034274;28;20477;-60
2021/09/24 04:51:40;;;;;;;10.27;5.88;;;;;;;21.88;52.20;101596.00;5033614;28;20026;-61
2021/09/24 04:54:08;;;;;;;9.48;5.10;;;;;;;21.87;52.30;101586.38;5032723;28;20032;-63
2021/09/24 04:56:33;;;;;;;8.07;5.53;;;;;;;21.87;52.30;101588.19;5033406;28;20032;-61
2021/09/24 04:58:59;;;;;;;10.23;5.55;;;;;;;21.85;52.16;101590.97;5033450;28;20116;-61
2021/09/24 05:01:27;;;;;;;9.13;5.87;;;;;;;21.89;52.48;101591.56;5033259;28;20415;-62
2021/09/24 05:03:52;;;;;;;9.60;5.78;;;;;;;21.88;52.27;101600.47;5033141;28;20336;-61
2021/09/24 05:06:20;;;;;;;8.70;5.70;;;;;;;21.87;52.26;101598.78;5033705;28;20025;-62
2021/09/24 05:08:45;;;;;;;10.40;5.50;;;;;;;21.86;52.27;101597.97;5032911;28;20289;-61
2021/09/24 05:11:11;;;;;;;9.43;5.50;;;;;;;21.87;52.26;101602.31;5033029;28;20017;-61
2021/09/24 05:13:38;;;;;;;9.43;5.90;;;;;;;21.87;52.20;101607.63;5033147;28;20306;-61
2021/09/24 05:16:04;;;;;;;8.88;5.60;;;;;;;21.87;52.24;101604.09;5033169;28;20302;-61
2021/09/24 05:18:30;;;;;;;7.90;5.28;;;;;;;21.86;52.14;101602.44;5033174;28;20052;-62
2021/09/24 05:21:04;;;;;;;8.93;5.70;;;;;;;21.86;52.03;101602.44;5032367;28;20096;-62
2021/09/24 05:23:29;;;;;;;;;;;;;;;21.86;52.11;101608.56;5033697;28;20076;-61
2021/09/24 05:25:55;;;;;;;8.55;5.45;;;;;;;21.86;52.25;101600.63;5032877;28;19913;-62
2021/09/24 05:28:20;;;;;;;8.80;4.65;;;;;;;21.86;52.17;101602.44;5032537;28;20026;-62
2021/09/24 05:30:45;;;;;;;9.63;5.72;;;;;;;21.85;52.22;101601.56;5032918;28;20036;-62
2021/09/24 05:33:11;;;;;;;8.85;5.53;;;;;;;21.85;52.30;101611.34;5032501;28;20057;-62
2021/09/24 05:35:36;;;;;;;9.93;6.10;;;;;;;21.83;52.39;101603.53;5031825;28;20092;-61
2021/09/24 05:38:02;;;;;;;9.80;6.17;;;;;;;21.84;52.51;101602.56;5032468;28;20044;-61
2021/09/24 05:40:27;;;;;;;8.48;5.35;;;;;;;21.82;52.33;101603.66;5032660;28;20305;-62
2021/09/24 05:42:53;;;;;;;9.32;5.80;;;;;;;21.83;52.23;101608.84;5031574;28;20053;-62
2021/09/24 05:45:20;;;;;;;7.28;4.97;;;;;;;21.83;52.40;101608.84;5032790;28;20029;-62
2021/09/24 05:47:48;;;;;;;10.23;5.88;;;;;;;21.83;52.71;101608.00;5032787;28;20036;-61
2021/09/24 05:50:15;;;;;;;8.25;5.07;;;;;;;21.83;52.33;101606.19;5032048;28;20128;-63
2021/09/24 05:52:44;;;;;;;9.02;5.00;;;;;;;21.83;52.45;101608.00;5032290;28;20108;-62
2021/09/24 05:55:18;;;;;;;9.63;5.45;;;;;;;21.82;52.45;101599.19;5032395;28;20039;-61
2021/09/24 05:57:44;;;;;;;7.80;5.20;;;;;;;21.82;52.33;101601.84;5031964;28;20076;-62
2021/09/24 06:00:15;;;;;;;9.70;5.50;;;;;;;21.82;52.34;101599.19;5032333;28;20087;-62
2021/09/24 06:02:42;;;;;;;8.23;4.93;;;;;;;21.82;52.38;101598.34;5031631;28;20053;-62
2021/09/24 06:05:08;;;;;;;9.23;5.75;;;;;;;21.83;52.43;101597.38;5031561;28;20032;-64
2021/09/24 06:07:33;;;;;;;8.55;5.13;;;;;;;21.84;52.42;101604.34;5032240;28;20026;-62
2021/09/24 06:09:59;;;;;;;7.63;5.03;;;;;;;21.83;52.31;101600.03;5031637;28;20021;-63
2021/09/24 06:12:25;;;;;;;7.57;5.20;;;;;;;21.83;52.49;101597.38;5032307;28;20029;-63
2021/09/24 06:14:50;;;;;;;8.82;5.15;;;;;;;21.83;52.42;101598.22;5031717;28;20079;-61
2021/09/24 06:17:18;;;;;;;7.45;4.63;;;;;;;21.84;52.31;101607.00;5031371;28;20025;-61
2021/09/24 06:19:43;;;;;;;9.20;5.30;;;;;;;21.83;52.43;101598.22;5031969;28;20029;-62
2021/09/24 06:22:09;;;;;;;9.60;5.35;;;;;;;21.84;52.84;101604.34;5031991;28;20096;-63
2021/09/24 06:24:36;;;;;;;8.85;5.80;;;;;;;21.81;52.67;101601.97;5031481;28;20028;-63
2021/09/24 06:27:02;;;;;;;8.40;4.85;;;;;;;21.77;52.60;101596.09;5031652;28;20057;-64
2021/09/24 06:29:30;;;;;;;9.30;4.88;;;;;;;21.77;52.77;101601.38;5032177;28;20385;-62
2021/09/24 06:31:55;;;;;;;8.13;4.93;;;;;;;21.77;52.61;101596.09;5030953;28;20079;-65
2021/09/24 06:34:23;;;;;;;8.77;5.67;;;;;;;21.78;52.94;101594.25;5031851;28;20029;-64
2021/09/24 06:36:48;;;;;;;8.75;5.50;;;;;;;21.78;52.99;101595.13;5031779;28;20267;-63
2021/09/24 06:39:14;;;;;;;8.70;5.45;;;;;;;21.80;53.15;101595.00;5031332;28;20029;-62
2021/09/24 06:41:39;;;;;;;8.73;4.65;;;;;;;21.83;52.86;101595.56;5031952;28;20492;-63
2021/09/24 06:44:07;;;;;;;8.73;4.82;;;;;;;21.86;53.04;101602.44;5031733;28;20381;-65
2021/09/24 06:46:33;;;;;;;7.53;5.03;;;;;;;21.86;52.94;101597.97;5031205;28;20029;-65
2021/09/24 06:48:58;;;;;;;7.82;4.80;;;;;;;21.86;53.05;101602.44;5031395;28;20049;-64
2021/09/24 06:51:23;;;;;;;8.80;5.37;;;;;;;21.87;52.77;101604.97;5031968;28;20032;-65
2021/09/24 06:53:48;;;;;;;7.33;4.40;;;;;;;21.89;53.22;101603.00;5030647;28;20271;-64
2021/09/24 06:56:14;;;;;;;8.23;4.70;;;;;;;21.90;53.06;101601.19;5031985;28;20282;-63
2021/09/24 06:58:39;;;;;;;8.68;4.90;;;;;;;21.87;53.56;101594.34;5031636;28;20598;-63
2021/09/24 07:01:04;;;;;;;9.55;4.93;;;;;;;21.87;53.16;101596.13;5030569;28;20030;-63
2021/09/24 07:03:30;;;;;;;7.63;4.93;;;;;;;21.88;53.13;101597.81;5031531;28;20046;-63
2021/09/24 07:05:55;;;;;;;8.27;4.97;;;;;;;21.88;53.14;101603.97;5031665;28;20036;-62
2021/09/24 07:08:20;;;;;;;7.78;4.68;;;;;;;21.87;53.21;101597.00;5031230;28;20026;-63
2021/09/24 07:10:45;;;;;;;7.68;4.57;;;;;;;21.90;53.15;101595.88;5031640;28;20029;-62
2021/09/24 07:13:13;;;;;;;8.23;4.77;;;;;;;21.90;53.20;101591.44;5030870;28;20025;-62
2021/09/24 07:15:43;;;;;;;8.82;4.63;;;;;;;21.91;52.95;101592.25;5034951;28;20282;-64
2021/09/24 07:18:10;;;;;;;7.25;4.57;;;;;;;21.92;52.97;101593.91;5035045;28;20025;-63
2021/09/24 07:20:36;;;;;;;7.75;5.00;;;;;;;21.94;53.16;101586.69;5034716;28;20388;-63
2021/09/24 07:23:01;;;;;;;7.18;4.63;;;;;;;21.95;53.17;101582.22;5035011;28;20028;-62
2021/09/24 07:25:26;;;;;;;7.00;4.82;;;;;;;21.96;53.15;101589.22;5029180;28;20167;-62
2021/09/24 07:27:51;;;;;;;10.23;5.00;;;;;;;;;;5010773;28;20037;-61
2021/09/24 07:30:17;;;;;;;7.63;4.67;;;;;;;22.01;53.40;101595.78;5013835;28;20309;-62
2021/09/24 07:32:42;;;;;;;7.55;4.35;;;;;;;22.05;53.33;101597.22;5012603;28;20081;-62
2021/09/24 07:35:08;;;;;;;8.98;4.90;;;;;;;22.12;53.21;101594.88;5012946;28;20038;-62
2021/09/24 07:37:33;;;;;;;7.90;4.90;;;;;;;22.16;53.07;101590.13;5013630;28;20029;-61
2021/09/24 07:39:59;;;;;;;7.80;4.33;;;;;;;22.19;53.23;101590.72;5013391;28;20021;-61
2021/09/24 07:42:24;;;;;;;6.72;4.50;;;;;;;22.22;53.03;101595.75;5013440;28;20354;-63
2021/09/24 07:44:49;;;;;;;8.82;5.18;;;;;;;22.23;53.40;101597.44;5013033;28;20025;-61
2021/09/24 07:47:14;;;;;;;9.77;5.20;;;;;;;22.25;53.49;101600.78;5013525;28;20072;-65
2021/09/24 07:49:41;;;;;;;9.13;5.45;;;;;;;22.25;53.39;101599.94;5013165;28;20282;-63
2021/09/24 07:52:06;;;;;;;7.63;4.82;;;;;;;22.25;53.33;101597.28;5013153;28;20028;-60
2021/09/24 07:54:32;;;;;;;6.70;4.50;;;;;;;22.31;53.05;101602.09;5012736;28;20022;-61
2021/09/24 07:56:57;;;;;;;6.97;4.30;;;;;;;22.35;52.91;101603.53;5012267;28;20740;-62
2021/09/24 07:59:22;;;;;;;7.97;4.70;;;;;;;22.40;52.77;101596.00;5013096;28;20113;-61
2021/09/24 08:01:48;;;;;;;6.47;3.83;;;;;;;22.42;52.49;101602.00;5012894;28;20060;-62
2021/09/24 08:04:13;;;;;;;7.88;4.93;;;;;;;22.41;53.19;101603.00;5012289;28;20441;-63
2021/09/24 08:06:41;;;;;;;7.35;4.90;;;;;;;22.39;52.92;101604.09;5013060;28;20026;-63
2021/09/24 08:09:06;;;;;;;7.82;4.47;;;;;;;22.38;52.71;101608.56;5012727;28;20366;-60
2021/09/24 08:11:32;;;;;;;7.23;4.60;;;;;;;22.42;52.90;101609.97;5012734;28;20034;-61
2021/09/24 08:14:00;;;;;;;6.05;4.25;;;;;;;22.45;52.81;101614.19;5012282;28;20301;-61
2021/09/24 08:16:25;;;;;;;7.18;4.13;;;;;;;22.48;52.50;101607.75;5013512;28;20113;-62
2021/09/24 08:18:51;;;;;;;6.65;3.92;;;;;;;22.49;52.50;101614.75;5012140;28;20465;-63
2021/09/24 08:21:16;;;;;;;7.65;4.55;;;;;;;22.49;52.61;101612.09;5013321;28;20025;-62
2021/09/24 08:23:42;;;;;;;6.72;4.22;;;;;;;22.48;52.69;101623.69;5011079;28;20488;-63
2021/09/24 08:26:09;;;;;;;9.25;4.25;;;;;;;22.48;52.47;101608.59;5012138;28;20426;-63
2021/09/24 08:28:34;;;;;;;7.28;3.97;;;;;;;22.47;52.69;101617.53;5012385;28;20041;-64
2021/09/24 08:31:01;;;;;;;7.50;4.07;;;;;;;22.49;52.95;101615.56;5011426;28;20101;-62
2021/09/24 08:33:27;;;;;;;6.97;4.10;;;;;;;22.48;53.06;101613.91;5013006;28;20044;-62
2021/09/24 08:35:59;;;;;;;6.63;3.97;;;;;;;22.50;52.98;101617.25;5012252;28;20029;-61
2021/09/24 08:38:25;;;;;;;7.60;4.95;;;;;;;22.51;52.87;101618.09;5012040;28;20025;-61
2021/09/24 08:40:50;;;;;;;9.43;4.13;;;;;;;22.51;52.93;101616.31;5012272;28;20041;-67
2021/09/24 08:43:19;;;;;;;6.63;4.25;;;;;;;22.54;53.04;101617.81;5012655;28;20021;-64
2021/09/24 08:45:47;;;;;;;6.57;4.43;;;;;;;22.52;52.85;101625.94;5011816;28;20045;-63
2021/09/24 08:48:14;;;;;;;7.45;4.40;;;;;;;22.54;52.69;101628.44;5011039;28;20052;-63
2021/09/24 08:50:41;;;;;;;7.00;3.92;;;;;;;22.59;52.50;101620.94;5012088;28;20057;-62
2021/09/24 08:53:09;;;;;;;9.00;3.88;;;;;;;22.66;52.36;101623.91;5011497;28;20469;-64
2021/09/24 08:55:35;;;;;;;6.25;4.15;;;;;;;22.70;52.58;101628.81;5010604;28;20038;-65
2021/09/24 08:58:04;;;;;;;6.72;4.05;;;;;;;22.69;52.20;101627.09;5010374;28;20416;-66
2021/09/24 09:00:31;;;;;;;6.35;3.70;;;;;;;22.71;52.39;101630.47;5012020;28;20097;-61
2021/09/24 09:02:59;;;;;;;6.03;3.65;;;;;;;22.69;52.70;101627.09;5011038;28;20061;-62
2021/09/24 09:05:33;;;;;;;7.88;3.90;;;;;;;22.70;52.33;101625.28;5010698;28;20105;-61
2021/09/24 09:08:15;;;;;;;6.20;3.83;;;;;;;22.69;52.35;101619.13;5010933;28;20496;-66
2021/09/24 09:11:02;;;;;;;6.50;3.92;;;;;;;22.72;52.54;101633.97;5011224;28;20042;-61
2021/09/24 09:13:40;;;;;;;6.80;3.97;;;;;;;22.74;52.39;101634.69;5008014;28;20421;-63
2021/09/24 09:16:12;;;;;;;6.18;3.75;;;;;;;22.76;52.27;101635.38;5011155;28;20409;-61
2021/09/24 09:18:40;;;;;;;7.20;4.00;;;;;;;22.74;52.27;101629.34;5011799;28;20099;-63
2021/09/24 09:21:08;;;;;;;5.95;3.85;;;;;;;22.72;52.72;101626.84;5009388;28;20025;-67
2021/09/24 09:23:39;;;;;;;6.22;3.78;;;;;;;22.70;52.45;101631.47;5012049;28;20026;-65
2021/09/24 09:26:10;;;;;;;6.93;4.13;;;;;;;22.68;52.39;101630.72;5011719;28;20032;-64
2021/09/24 09:28:41;;;;;;;7.03;4.03;;;;;;;22.68;52.50;101627.25;5011572;28;20032;-64
2021/09/24 09:31:32;;;;;;;6.65;3.80;;;;;;;22.66;52.88;101624.72;5010531;28;20030;-62
2021/09/24 09:34:00;;;;;;;6.50;4.22;;;;;;;22.68;52.88;101629.91;5010359;28;20037;-64
2021/09/24 09:36:31;;;;;;;6.40;3.78;;;;;;;22.68;52.64;101621.94;5011115;28;20026;-63
2021/09/24 09:38:58;;;;;;;5.97;3.78;;;;;;;22.69;52.36;101618.31;5011910;28;20068;-63
2021/09/24 09:41:24;;;;;;;7.20;3.90;;;;;;;22.68;52.36;101617.44;5011969;28;20129;-64
2021/09/24 09:43:59;;;;;;;6.03;3.40;;;;;;;22.70;52.81;101619.97;5012070;28;20040;-61
2021/09/24 09:46:30;;;;;;;6.40;3.65;;;;;;;22.72;52.71;101616.22;5012405;28;20038;-62
2021/09/24 09:49:14;;;;;;;7.43;3.83;;;;;;;22.75;52.30;101612.44;5010991;28;20442;-64
2021/09/24 09:51:42;;;;;;;7.63;3.63;;;;;;;22.76;52.55;101609.63;5011352;28;20161;-66
2021/09/24 09:54:24;;;;;;;6.03;3.25;;;;;;;22.79;52.48;101608.53;5011318;28;20030;-64
2021/09/24 09:56:50;;;;;;;6.43;3.83;;;;;;;22.82;52.37;101621.53;5010208;28;20546;-64
2021/09/24 09:59:25;;;;;;;6.25;3.40;;;;;;;22.81;52.26;101620.72;5011283;28;20026;-67
2021/09/24 10:02:09;;;;;;;5.40;3.65;;;;;;;22.79;52.36;101616.50;5010740;28;20465;-67
2021/09/24 10:04:40;;;;;;;5.38;3.55;;;;;;;22.77;52.48;101616.63;5011149;28;20041;-62
2021/09/24 10:07:18;;;;;;;6.30;3.65;;;;;;;22.79;52.49;101611.19;5010791;28;20049;-62
2021/09/24 10:09:46;;;;;;;7.40;4.10;;;;;;;22.78;52.32;101610.34;5009997;28;20092;-62
2021/09/24 10:12:17;;;;;;;10.10;3.50;;;;;;;22.83;52.46;101616.09;5010132;28;20045;-65
2021/09/24 10:14:42;;;;;;;7.45;3.70;;;;;;;22.86;52.15;101611.47;5011324;28;20018;-63
2021/09/24 10:17:08;;;;;;;6.00;3.88;;;;;;;22.88;52.08;101621.00;5009142;28;20544;-63
2021/09/24 10:19:33;;;;;;;7.25;3.72;;;;;;;22.91;52.09;101619.91;5010832;28;20469;-62
2021/09/24 10:21:58;;;;;;;7.30;4.10;;;;;;;22.94;51.74;101608.97;5009789;28;20030;-62
2021/09/24 10:24:24;;;;;;;5.82;3.47;;;;;;;22.91;51.78;101618.06;5010341;28;20373;-63
2021/09/24 10:26:56;;;;;;;6.72;3.65;;;;;;;22.89;52.28;101603.22;5010274;28;20362;-64
2021/09/24 10:29:29;;;;;;;6.43;3.70;;;;;;;22.85;52.43;101612.47;5011460;28;20477;-61
2021/09/24 10:32:11;;;;;;;7.07;3.88;;;;;;;22.85;52.50;101615.13;5009338;28;20460;-60
2021/09/24 10:35:01;;;;;;;5.60;3.60;;;;;;;22.82;52.03;101614.41;5012528;28;20080;-62
2021/09/24 10:37:28;;;;;;;6.85;3.50;;;;;;;22.84;51.84;101603.63;5012214;28;20377;-63
2021/09/24 10:39:59;;;;;;;7.03;3.95;;;;;;;22.83;51.92;101602.81;5012509;28;20034;-62
2021/09/24 10:42:26;;;;;;;5.32;3.78;;;;;;;22.86;51.81;101606.16;5012522;28;20029;-61
2021/09/24 10:45:15;;;;;;;8.25;3.92;;;;;;;22.86;51.98;101600.84;5011442;28;20500;-61
2021/09/24 10:47:48;;;;;;;5.97;3.85;;;;;;;22.83;52.26;101602.81;5012632;28;20446;-60
2021/09/24 10:50:28;;;;;;;6.53;3.75;;;;;;;22.86;52.03;101606.16;5015197;28;20022;-61
2021/09/24 10:53:18;;;;;;;6.32;3.65;;;;;;;22.91;52.09;101603.94;5015478;28;20056;-60
2021/09/24 10:56:08;;;;;;;4.82;3.35;;;;;;;22.88;52.23;101596.25;5016292;28;20453;-58
2021/09/24 10:58:42;;;;;;;5.53;3.55;;;;;;;22.84;52.29;101585.03;5015531;28;20026;-60
2021/09/24 11:01:27;;;;;;;5.75;3.75;;;;;;;22.85;51.90;101591.22;5015910;28;20037;-59
2021/09/24 11:03:58;;;;;;;6.05;4.22;;;;;;;22.82;52.20;101582.50;5015678;28;20034;-62
2021/09/24 11:07:00;;;;;;;9.23;3.83;;;;;;;22.73;52.31;101562.09;5015256;28;20551;-63
2021/09/24 11:09:27;;;;;;;6.07;3.72;;;;;;;22.79;52.13;101573.97;5011235;28;20054;-62
2021/09/24 11:12:08;;;;;;;7.07;3.75;;;;;;;22.79;52.01;101569.50;5015723;28;20021;-64
2021/09/24 11:14:37;;;;;;;6.00;3.65;;;;;;;22.78;52.11;101564.31;5014945;28;20109;-62
2021/09/24 11:17:05;;;;;;;6.78;3.65;;;;;;;22.77;52.28;101560.84;5015372;28;20155;-65
2021/09/24 11:19:45;;;;;;;6.38;3.30;;;;;;;22.77;52.24;101560.84;5014809;28;20501;-61
2021/09/24 11:22:34;;;;;;;6.60;3.92;;;;;;;22.75;52.63;101560.13;5015158;28;20061;-61
2021/09/24 11:25:07;;;;;;;5.75;3.33;;;;;;;22.74;52.18;101563.75;5015622;28;20026;-62
2021/09/24 11:27:42;;;;;;;5.95;3.38;;;;;;;22.75;52.43;101559.31;5014808;28;20030;-62
2021/09/24 11:30:07;;;;;;;5.82;3.97;;;;;;;22.74;52.44;101553.13;5015254;28;20190;-61